Time;durP1;ratioP1;P1;durP2;ratioP2;P2;SDS_P1;SDS_P2;PMS_P1;PMS_P2;Temp;Humidity;BMP_temperature;BMP_pressure;BME280_temperature;BME280_humidity;BME280_pressure;Samples;Min_cycle;Max_cycle;Signal;HPM_P1;HPM_P2
2021/05/29 00:00:00;;;;;;;9.68;6.03;;;11.80;77.80;;;;;;5083599;28;20032;-69
2021/05/29 00:02:25;;;;;;;6.57;4.65;;;11.80;77.70;;;;;;5092821;28;20131;-70
2021/05/29 00:04:51;;;;;;;7.35;4.85;;;11.70;77.80;;;;;;5089441;28;20132;-71
2021/05/29 00:07:17;;;;;;;10.68;5.75;;;11.80;78.00;;;;;;5086193;28;20087;-72
2021/05/29 00:09:43;;;;;;;5.65;5.05;;;11.70;77.90;;;;;;5087760;28;20107;-74
2021/05/29 00:12:10;;;;;;;7.43;4.88;;;11.70;77.90;;;;;;5084181;28;20024;-69
2021/05/29 00:14:38;;;;;;;6.55;5.28;;;11.70;78.00;;;;;;5083963;28;20024;-70
2021/05/29 00:17:08;;;;;;;7.25;4.80;;;11.70;78.00;;;;;;5087443;28;20024;-69
2021/05/29 00:19:35;;;;;;;10.20;5.15;;;11.60;78.20;;;;;;5071179;28;20473;-69
2021/05/29 00:22:01;;;;;;;6.07;4.43;;;11.60;78.20;;;;;;5089261;28;20020;-69
2021/05/29 00:24:27;;;;;;;6.53;4.05;;;11.60;78.40;;;;;;5088014;28;20035;-69
2021/05/29 00:26:52;;;;;;;9.98;4.22;;;11.50;78.50;;;;;;5088432;28;20178;-69
2021/05/29 00:29:18;;;;;;;4.80;4.00;;;11.50;78.60;;;;;;5090184;28;20494;-69
2021/05/29 00:31:43;;;;;;;4.32;3.70;;;11.50;78.60;;;;;;5090007;28;20031;-71
2021/05/29 00:34:10;;;;;;;8.55;4.07;;;11.50;78.70;;;;;;5088655;28;20085;-69
2021/05/29 00:36:35;;;;;;;6.20;4.07;;;11.50;78.70;;;;;;5090288;28;20030;-74
2021/05/29 00:39:01;;;;;;;4.45;4.05;;;11.40;78.80;;;;;;5089466;28;20111;-69
2021/05/29 00:41:27;;;;;;;5.88;4.25;;;11.40;78.80;;;;;;5092769;28;20040;-69
2021/05/29 00:43:52;;;;;;;5.03;3.83;;;11.40;78.90;;;;;;5089008;28;20037;-70
2021/05/29 00:46:18;;;;;;;5.35;3.90;;;11.30;79.00;;;;;;5089938;28;20067;-72
2021/05/29 00:48:43;;;;;;;4.22;3.75;;;11.30;79.10;;;;;;5088572;28;20060;-69
2021/05/29 00:51:09;;;;;;;6.35;3.70;;;11.30;79.20;;;;;;5088061;28;20459;-68
2021/05/29 00:53:36;;;;;;;5.07;4.40;;;11.30;79.20;;;;;;5090363;28;20028;-69
2021/05/29 00:56:03;;;;;;;5.70;3.88;;;11.20;79.20;;;;;;5088691;28;20456;-69
2021/05/29 00:58:29;;;;;;;7.32;4.32;;;11.20;79.30;;;;;;5089416;28;20032;-69
2021/05/29 01:00:56;;;;;;;5.40;4.10;;;11.20;79.30;;;;;;5083069;28;20031;-70
2021/05/29 01:03:21;;;;;;;5.07;3.80;;;11.20;79.30;;;;;;5084558;28;20044;-69
2021/05/29 01:05:48;;;;;;;7.03;3.90;;;11.20;79.30;;;;;;5081913;28;20020;-72
2021/05/29 01:08:14;;;;;;;5.30;3.88;;;11.20;79.40;;;;;;5089162;28;20022;-69
2021/05/29 01:10:41;;;;;;;5.05;3.58;;;11.10;79.30;;;;;;5083087;28;20040;-69
2021/05/29 01:13:09;;;;;;;6.22;3.88;;;11.10;79.30;;;;;;5095505;28;20036;-71
2021/05/29 01:15:39;;;;;;;6.20;3.80;;;11.10;79.40;;;;;;5088601;28;20016;-69
2021/05/29 01:18:06;;;;;;;4.32;3.90;;;11.00;79.30;;;;;;5089645;28;20089;-69
2021/05/29 01:20:32;;;;;;;4.60;4.05;;;11.00;79.40;;;;;;5088958;28;20047;-68
2021/05/29 01:22:59;;;;;;;4.95;3.83;;;11.00;79.60;;;;;;5089844;28;20067;-69
2021/05/29 01:25:32;;;;;;;5.15;4.03;;;11.00;79.60;;;;;;5088892;28;20028;-69
2021/05/29 01:28:06;;;;;;;5.90;4.30;;;11.00;79.70;;;;;;5077094;28;20114;-69
2021/05/29 01:30:45;;;;;;;4.53;4.10;;;11.00;79.60;;;;;;5089181;28;20040;-70
2021/05/29 01:33:13;;;;;;;5.00;4.53;;;10.90;79.60;;;;;;5089726;28;20046;-74
2021/05/29 01:35:39;;;;;;;12.80;5.13;;;10.90;79.70;;;;;;5087578;28;20621;-67
2021/05/29 01:38:05;;;;;;;7.13;4.80;;;10.90;79.40;;;;;;5085244;28;20038;-69
2021/05/29 01:40:31;;;;;;;6.90;4.95;;;10.70;79.40;;;;;;5088694;28;20036;-69
2021/05/29 01:42:57;;;;;;;5.28;4.57;;;10.70;79.70;;;;;;5077407;28;20041;-69
2021/05/29 01:45:26;;;;;;;9.23;4.75;;;10.60;79.80;;;;;;5071585;28;20028;-69
2021/05/29 01:47:52;;;;;;;10.27;5.38;;;10.60;80.00;;;;;;5089157;28;20020;-73
2021/05/29 01:50:18;;;;;;;8.77;5.30;;;10.50;80.00;;;;;;5089282;28;20016;-74
2021/05/29 01:52:54;;;;;;;7.68;5.72;;;10.50;79.90;;;;;;5078407;28;20028;-73
2021/05/29 01:55:22;;;;;;;7.68;5.97;;;10.50;80.10;;;;;;5082330;28;20025;-69
2021/05/29 01:57:50;;;;;;;8.52;5.65;;;10.40;80.00;;;;;;5085009;28;20051;-73
2021/05/29 02:00:17;;;;;;;9.43;5.30;;;10.40;80.10;;;;;;5088096;28;20472;-69
2021/05/29 02:02:42;;;;;;;9.52;5.93;;;10.30;80.30;;;;;;5110938;28;20031;-72
2021/05/29 02:05:17;;;;;;;9.88;5.00;;;10.30;80.30;;;;;;5103333;28;20031;-75
2021/05/29 02:07:44;;;;;;;6.13;5.35;;;10.20;80.40;;;;;;5092511;28;20107;-72
2021/05/29 02:10:14;;;;;;;7.63;4.80;;;10.20;80.40;;;;;;5092480;28;20032;-69
2021/05/29 02:12:42;;;;;;;6.22;5.35;;;10.20;80.50;;;;;;5098753;28;20392;-68
2021/05/29 02:15:11;;;;;;;5.47;4.88;;;10.20;80.60;;;;;;5090897;28;20020;-70
2021/05/29 02:17:36;;;;;;;5.53;4.70;;;10.10;80.50;;;;;;5092125;28;20035;-70
2021/05/29 02:20:05;;;;;;;7.82;4.50;;;10.10;80.50;;;;;;5090816;28;20088;-70
2021/05/29 02:22:30;;;;;;;5.57;4.60;;;10.10;80.60;;;;;;5092473;28;20722;-70
2021/05/29 02:24:56;;;;;;;8.70;4.40;;;10.10;80.60;;;;;;5091514;28;20056;-70
2021/05/29 02:27:21;;;;;;;6.00;4.68;;;10.00;80.70;;;;;;5092129;28;20028;-70
2021/05/29 02:29:47;;;;;;;7.88;4.85;;;10.00;80.70;;;;;;5092443;28;20047;-71
2021/05/29 02:32:13;;;;;;;5.30;4.53;;;10.00;80.70;;;;;;5090882;28;20464;-69
2021/05/29 02:34:38;;;;;;;7.43;4.80;;;9.90;80.50;;;;;;5091785;28;20012;-69
2021/05/29 02:37:04;;;;;;;8.90;4.95;;;9.90;80.60;;;;;;5073269;28;20108;-70
2021/05/29 02:39:29;;;;;;;5.28;4.78;;;9.80;80.70;;;;;;5079595;28;20154;-70
2021/05/29 02:41:55;;;;;;;10.20;5.10;;;9.80;80.80;;;;;;5090992;28;20361;-70
2021/05/29 02:44:20;;;;;;;7.25;4.93;;;9.70;80.90;;;;;;5091425;28;20399;-70
2021/05/29 02:46:46;;;;;;;10.07;5.53;;;9.70;81.00;;;;;;5091755;28;20101;-70
2021/05/29 02:49:12;;;;;;;6.28;5.40;;;9.70;81.00;;;;;;5090761;28;20039;-72
2021/05/29 02:51:37;;;;;;;8.15;5.57;;;9.70;81.00;;;;;;5091242;28;20114;-69
2021/05/29 02:54:03;;;;;;;6.18;5.57;;;9.60;81.10;;;;;;5091254;28;20032;-69
2021/05/29 02:56:28;;;;;;;8.07;5.22;;;9.70;81.20;;;;;;5092004;28;20022;-70
2021/05/29 02:58:54;;;;;;;6.95;5.22;;;9.60;81.00;;;;;;5091312;28;20028;-70
2021/05/29 03:01:20;;;;;;;6.93;5.35;;;9.60;81.20;;;;;;5089933;28;20393;-71
2021/05/29 03:03:45;;;;;;;6.93;5.40;;;9.50;81.30;;;;;;5091338;28;20028;-71
2021/05/29 03:06:11;;;;;;;6.75;5.50;;;9.50;81.30;;;;;;5090151;28;20024;-70
2021/05/29 03:08:36;;;;;;;6.10;5.07;;;9.50;81.30;;;;;;5090879;28;20081;-70
2021/05/29 03:11:02;;;;;;;8.07;5.45;;;9.50;81.30;;;;;;5089650;28;20472;-70
2021/05/29 03:13:27;;;;;;;8.40;5.22;;;9.50;81.40;;;;;;5088406;28;20475;-73
2021/05/29 03:15:53;;;;;;;6.18;5.55;;;9.50;81.50;;;;;;5082530;28;20369;-70
2021/05/29 03:18:19;;;;;;;6.07;5.47;;;9.50;81.50;;;;;;5090960;28;20131;-70
2021/05/29 03:20:44;;;;;;;6.55;5.88;;;9.50;81.50;;;;;;5083808;28;20036;-70
2021/05/29 03:23:10;;;;;;;7.75;5.70;;;9.50;81.60;;;;;;5089424;28;20032;-70
2021/05/29 03:25:36;;;;;;;8.82;5.80;;;9.50;81.60;;;;;;5089682;28;20154;-70
2021/05/29 03:28:02;;;;;;;8.80;5.53;;;9.40;82.00;;;;;;5088940;28;20066;-70
2021/05/29 03:30:29;;;;;;;6.30;5.38;;;9.40;81.60;;;;;;5090614;28;20028;-70
2021/05/29 03:32:56;;;;;;;9.65;5.78;;;9.40;81.60;;;;;;5090587;28;20047;-69
2021/05/29 03:35:22;;;;;;;10.18;5.55;;;9.40;81.60;;;;;;5085530;28;20036;-71
2021/05/29 03:37:47;;;;;;;7.32;5.40;;;9.40;81.60;;;;;;5078842;28;20456;-70
2021/05/29 03:40:14;;;;;;;8.35;5.70;;;9.40;81.60;;;;;;5091267;28;20028;-68
2021/05/29 03:42:40;;;;;;;7.32;6.00;;;9.40;81.60;;;;;;5090114;28;20055;-70
2021/05/29 03:45:12;;;;;;;8.38;6.00;;;9.40;81.60;;;;;;5089998;28;20032;-70
2021/05/29 03:47:42;;;;;;;7.83;5.97;;;9.40;81.60;;;;;;5090478;28;20063;-70
2021/05/29 03:50:09;;;;;;;7.22;5.50;;;9.40;81.60;;;;;;5088104;28;20112;-70
2021/05/29 03:52:34;;;;;;;7.47;6.00;;;9.30;81.60;;;;;;5082074;28;20027;-70
2021/05/29 03:55:00;;;;;;;7.95;5.78;;;9.30;81.60;;;;;;5089308;28;20112;-71
2021/05/29 03:57:26;;;;;;;7.60;5.55;;;9.30;81.70;;;;;;5090179;28;20043;-70
2021/05/29 03:59:51;;;;;;;8.07;5.50;;;9.30;81.70;;;;;;5087192;28;20404;-70
2021/05/29 04:02:17;;;;;;;14.18;6.13;;;9.20;81.70;;;;;;5084188;28;20031;-70
2021/05/29 04:04:43;;;;;;;10.07;5.88;;;9.20;81.70;;;;;;5088386;28;20094;-70
2021/05/29 04:07:08;;;;;;;7.13;5.70;;;9.20;81.70;;;;;;5089239;28;20027;-70
2021/05/29 04:09:34;;;;;;;7.80;6.68;;;9.10;81.80;;;;;;5087795;28;20482;-69
2021/05/29 04:11:59;;;;;;;6.65;5.65;;;9.10;81.90;;;;;;5081486;28;20040;-70
2021/05/29 04:14:25;;;;;;;9.55;6.00;;;9.10;82.00;;;;;;5081299;28;20046;-70
2021/05/29 04:16:51;;;;;;;7.75;5.85;;;9.10;82.00;;;;;;5089820;28;20027;-70
2021/05/29 04:19:16;;;;;;;7.47;6.10;;;9.20;82.10;;;;;;5089659;28;20040;-69
2021/05/29 04:21:42;;;;;;;8.60;6.03;;;9.20;82.10;;;;;;5088999;28;20035;-69
2021/05/29 04:24:08;;;;;;;6.68;5.95;;;9.20;82.20;;;;;;5090252;28;20032;-71
2021/05/29 04:26:33;;;;;;;7.00;5.50;;;9.20;82.20;;;;;;5090447;28;20519;-71
2021/05/29 04:28:59;;;;;;;7.18;5.85;;;9.30;82.30;;;;;;5101801;28;20065;-70
2021/05/29 04:31:24;;;;;;;5.82;5.22;;;9.30;82.30;;;;;;5095427;28;20032;-69
2021/05/29 04:33:50;;;;;;;9.32;5.53;;;9.40;82.30;;;;;;5090372;28;20507;-69
2021/05/29 04:36:16;;;;;;;8.05;5.85;;;9.40;82.30;;;;;;5090263;28;20040;-71
2021/05/29 04:41:11;;;;;;;7.90;6.07;;;9.50;82.40;;;;;;5041289;28;20643;-73
2021/05/29 04:43:36;;;;;;;7.22;5.60;;;9.60;82.40;;;;;;5046367;28;20025;-73
2021/05/29 04:46:02;;;;;;;9.23;6.05;;;9.70;82.50;;;;;;5024533;28;20094;-72
2021/05/29 04:48:27;;;;;;;6.75;5.50;;;9.80;82.40;;;;;;5048845;28;20112;-72
2021/05/29 04:51:15;;;;;;;7.32;5.03;;;9.80;82.30;;;;;;5030704;28;20021;-71
2021/05/29 04:53:47;;;;;;;7.75;4.85;;;10.00;82.50;;;;;;5031608;28;20485;-72
2021/05/29 04:56:14;;;;;;;6.13;5.23;;;10.10;82.40;;;;;;5030783;28;20036;-73
2021/05/29 04:58:40;;;;;;;9.93;5.25;;;10.20;82.20;;;;;;5030516;28;20392;-73
2021/05/29 05:01:10;;;;;;;5.95;4.97;;;10.30;82.80;;;;;;5046742;28;20031;-73
2021/05/29 05:03:37;;;;;;;5.90;4.50;;;10.40;82.30;;;;;;5041317;28;20037;-72
2021/05/29 05:06:04;;;;;;;7.03;4.20;;;10.50;82.10;;;;;;5047831;28;20036;-73
2021/05/29 05:08:30;;;;;;;7.82;4.60;;;10.60;82.00;;;;;;5031263;28;20029;-73
2021/05/29 05:10:56;;;;;;;6.10;4.20;;;10.70;81.90;;;;;;5045150;28;20036;-73
2021/05/29 05:13:25;;;;;;;6.90;4.68;;;10.80;81.70;;;;;;5022709;28;20187;-73
2021/05/29 05:15:51;;;;;;;4.78;4.38;;;11.00;81.50;;;;;;5018754;28;20034;-72
2021/05/29 05:18:20;;;;;;;4.95;4.45;;;11.10;81.30;;;;;;5024988;28;20162;-73
2021/05/29 05:20:46;;;;;;;6.78;4.60;;;11.20;81.10;;;;;;5048946;28;20053;-73
2021/05/29 05:23:11;;;;;;;5.75;4.30;;;11.30;80.80;;;;;;5048785;28;20095;-73
2021/05/29 05:25:37;;;;;;;4.88;3.70;;;11.40;80.60;;;;;;5046086;28;20029;-73
2021/05/29 05:28:03;;;;;;;4.53;4.05;;;11.50;80.40;;;;;;5048830;28;20047;-72
2021/05/29 05:30:28;;;;;;;6.57;4.03;;;11.60;80.20;;;;;;5047924;28;20108;-72
2021/05/29 05:33:03;;;;;;;5.18;4.03;;;11.80;80.00;;;;;;5034521;28;20532;-73
2021/05/29 05:35:29;;;;;;;5.38;4.00;;;11.90;79.70;;;;;;5033481;28;20017;-72
2021/05/29 05:37:54;;;;;;;4.43;3.70;;;12.00;79.60;;;;;;5035066;28;20528;-73
2021/05/29 05:40:20;;;;;;;3.92;3.53;;;12.00;79.40;;;;;;5050552;28;20509;-73
2021/05/29 05:42:46;;;;;;;4.38;3.90;;;12.10;79.50;;;;;;5034756;28;20402;-72
2021/05/29 05:45:12;;;;;;;4.00;3.45;;;12.30;79.40;;;;;;5028707;28;20075;-73
2021/05/29 05:47:38;;;;;;;4.22;3.40;;;12.40;79.90;;;;;;5052600;28;20155;-73
2021/05/29 05:50:05;;;;;;;3.38;2.72;;;12.50;78.90;;;;;;5032503;28;20124;-73
2021/05/29 05:52:31;;;;;;;4.55;3.45;;;12.60;78.70;;;;;;5037803;28;20037;-71
2021/05/29 05:54:57;;;;;;;3.53;3.13;;;12.70;78.40;;;;;;5032851;28;20783;-73
2021/05/29 05:57:22;;;;;;;4.68;2.83;;;12.80;78.20;;;;;;5051616;28;20104;-73
2021/05/29 05:59:48;;;;;;;4.18;3.22;;;13.00;78.00;;;;;;5052226;28;20498;-72
2021/05/29 06:02:13;;;;;;;5.50;2.97;;;13.10;77.70;;;;;;5052487;28;20025;-72
2021/05/29 06:04:39;;;;;;;3.47;3.03;;;13.20;77.60;;;;;;5033439;28;20027;-73
2021/05/29 06:07:04;;;;;;;3.15;2.85;;;13.30;77.40;;;;;;5050987;28;20112;-73
2021/05/29 06:09:30;;;;;;;3.30;2.85;;;13.40;77.30;;;;;;5051181;28;20028;-72
2021/05/29 06:11:56;;;;;;;4.65;3.20;;;13.50;77.10;;;;;;5036003;28;20112;-70
2021/05/29 06:19:50;;;;;;;3.08;2.75;;;13.70;76.50;;;;;;5046757;28;20159;-71
2021/05/29 06:22:15;;;;;;;3.25;2.95;;;13.80;76.50;;;;;;5048776;28;20091;-74
2021/05/29 06:24:41;;;;;;;3.88;3.13;;;14.00;76.30;;;;;;5049760;28;20025;-73
2021/05/29 06:27:07;;;;;;;2.65;2.45;;;14.20;76.00;;;;;;5050110;28;20039;-73
2021/05/29 06:29:32;;;;;;;2.85;2.47;;;14.40;75.40;;;;;;5046931;28;20032;-73
2021/05/29 06:31:59;;;;;;;3.30;2.38;;;14.50;75.00;;;;;;5029264;28;20033;-72
2021/05/29 06:34:24;;;;;;;3.42;2.50;;;14.60;74.80;;;;;;5049990;28;20013;-72
2021/05/29 06:36:51;;;;;;;2.65;2.22;;;14.80;74.60;;;;;;5048523;28;20029;-72
2021/05/29 06:39:16;;;;;;;3.15;2.72;;;15.00;74.10;;;;;;5033372;28;20025;-73
2021/05/29 06:41:43;;;;;;;2.90;2.13;;;15.20;73.70;;;;;;5040115;28;20032;-73
2021/05/29 06:44:10;;;;;;;2.60;2.40;;;15.60;73.20;;;;;;5050790;28;20692;-73
2021/05/29 06:46:35;;;;;;;2.67;2.35;;;15.70;72.60;;;;;;5050830;28;20036;-73
2021/05/29 06:49:03;;;;;;;3.38;2.28;;;15.90;72.40;;;;;;5033247;28;20025;-71
2021/05/29 06:51:56;;;;;;;2.90;2.33;;;16.10;72.20;;;;;;5034449;28;20057;-73
2021/05/29 06:59:42;;;;;;;1.98;1.80;;;16.80;71.00;;;;;;5051237;28;20500;-68
2021/05/29 07:02:08;;;;;;;1.70;1.60;;;17.10;70.30;;;;;;5051549;28;20033;-68
2021/05/29 07:04:34;;;;;;;1.73;1.60;;;17.40;69.50;;;;;;5032455;28;20021;-68
2021/05/29 07:06:59;;;;;;;1.80;1.70;;;17.60;68.60;;;;;;5051885;28;20031;-69
2021/05/29 07:09:25;;;;;;;1.73;1.63;;;17.90;67.70;;;;;;5050781;28;20051;-68
2021/05/29 07:11:51;;;;;;;1.75;1.65;;;18.00;67.20;;;;;;5039515;28;20123;-68
2021/05/29 07:14:16;;;;;;;1.75;1.63;;;18.10;67.00;;;;;;5049456;28;20029;-69
2021/05/29 07:16:43;;;;;;;2.50;1.60;;;18.30;66.80;;;;;;5047599;28;20044;-69
2021/05/29 07:19:09;;;;;;;6.78;1.70;;;18.60;66.20;;;;;;5025097;28;20025;-68
2021/05/29 07:21:36;;;;;;;2.00;1.52;;;18.80;65.40;;;;;;5037147;28;20036;-69
2021/05/29 07:24:03;;;;;;;2.80;1.88;;;18.90;65.00;;;;;;5050183;28;20360;-68
2021/05/29 07:26:28;;;;;;;2.38;1.60;;;19.00;64.70;;;;;;5048906;28;20025;-68
2021/05/29 07:28:55;;;;;;;2.97;1.80;;;19.20;64.90;;;;;;5047163;28;20822;-69
2021/05/29 07:31:21;;;;;;;2.97;1.38;;;19.50;64.00;;;;;;5044093;28;20025;-69
2021/05/29 07:33:52;;;;;;;2.88;1.48;;;19.80;63.20;;;;;;5050515;28;20025;-69
2021/05/29 07:36:18;;;;;;;2.42;1.67;;;20.20;63.00;;;;;;5050476;28;20102;-68
2021/05/29 07:38:44;;;;;;;1.75;1.65;;;20.40;62.20;;;;;;5050305;28;20548;-72
2021/05/29 07:41:10;;;;;;;1.90;1.80;;;20.60;61.40;;;;;;5048022;28;20398;-73
2021/05/29 07:43:36;;;;;;;1.95;1.70;;;20.70;61.50;;;;;;5050802;28;20362;-73
2021/05/29 07:46:03;;;;;;;5.25;3.45;;;20.90;61.10;;;;;;5047883;28;20044;-73
2021/05/29 07:48:29;;;;;;;2.55;2.35;;;21.20;60.80;;;;;;5040540;28;20033;-69
2021/05/29 07:50:58;;;;;;;4.22;1.30;;;21.40;60.10;;;;;;5042134;28;20097;-69
2021/05/29 07:53:25;;;;;;;2.03;1.30;;;21.60;59.20;;;;;;5049383;28;20104;-69
2021/05/29 07:55:51;;;;;;;2.47;1.05;;;21.80;58.40;;;;;;5049249;28;20033;-69
2021/05/29 07:58:16;;;;;;;1.10;1.00;;;22.20;57.80;;;;;;5050817;28;20392;-69
2021/05/29 08:00:44;;;;;;;3.08;1.48;;;22.70;56.90;;;;;;5050723;28;20036;-69
2021/05/29 08:03:10;;;;;;;1.45;1.05;;;23.00;55.90;;;;;;5050731;28;20029;-70
2021/05/29 08:05:36;;;;;;;1.27;1.20;;;23.40;55.20;;;;;;5048637;28;20043;-70
2021/05/29 08:08:01;;;;;;;5.97;3.35;;;23.70;54.00;;;;;;5050424;28;20025;-69
2021/05/29 08:10:27;;;;;;;1.67;1.58;;;23.90;53.40;;;;;;5043457;28;20398;-69
2021/05/29 08:12:52;;;;;;;2.33;1.10;;;24.20;52.80;;;;;;5042314;28;20065;-69
2021/05/29 08:15:18;;;;;;;1.23;1.08;;;24.30;52.40;;;;;;5048570;28;20086;-69
2021/05/29 08:17:44;;;;;;;1.73;1.63;;;24.40;51.90;;;;;;5030654;28;20044;-71
2021/05/29 08:20:11;;;;;;;1.33;1.23;;;24.80;51.50;;;;;;5036501;28;20422;-71
2021/05/29 08:22:36;;;;;;;1.73;0.73;;;25.00;50.60;;;;;;5045431;28;20039;-69
2021/05/29 08:25:02;;;;;;;1.90;0.68;;;25.20;49.60;;;;;;5029641;28;20151;-70
2021/05/29 08:27:28;;;;;;;0.90;0.90;;;25.40;49.10;;;;;;5049342;28;20029;-71
2021/05/29 08:29:53;;;;;;;1.00;0.80;;;25.70;48.30;;;;;;5051098;28;20038;-69
2021/05/29 08:32:19;;;;;;;0.80;0.80;;;26.00;47.80;;;;;;5049612;28;20021;-70
2021/05/29 08:34:45;;;;;;;2.42;0.98;;;26.40;47.10;;;;;;5049018;28;20428;-71
2021/05/29 08:37:10;;;;;;;0.90;0.80;;;26.80;46.20;;;;;;5032373;28;20043;-71
2021/05/29 08:39:36;;;;;;;0.90;0.90;;;27.30;45.20;;;;;;5048750;28;20029;-70
2021/05/29 08:42:04;;;;;;;0.80;0.80;;;27.70;44.40;;;;;;5049358;28;20459;-70
2021/05/29 08:44:32;;;;;;;1.30;0.98;;;28.00;43.40;;;;;;5030139;28;20020;-71
2021/05/29 08:46:57;;;;;;;1.88;1.00;;;28.30;43.00;;;;;;5050137;28;20128;-71
2021/05/29 08:49:23;;;;;;;0.90;0.80;;;28.60;41.80;;;;;;5047047;28;20040;-72
2021/05/29 08:51:49;;;;;;;1.38;0.73;;;28.90;41.50;;;;;;5047199;28;20450;-70
2021/05/29 08:54:15;;;;;;;1.88;1.13;;;28.80;41.50;;;;;;5042209;28;20021;-70
2021/05/29 08:56:41;;;;;;;2.05;0.93;;;28.60;41.50;;;;;;5036348;28;20412;-71
2021/05/29 08:59:06;;;;;;;0.52;0.52;;;29.10;41.00;;;;;;5040489;28;20120;-71
2021/05/29 09:01:32;;;;;;;1.83;0.73;;;29.40;40.30;;;;;;5048862;28;20066;-71
2021/05/29 09:04:03;;;;;;;3.90;0.88;;;29.60;40.10;;;;;;5048744;28;20071;-70
2021/05/29 09:06:31;;;;;;;2.38;0.70;;;29.80;39.80;;;;;;5052660;28;20400;-69
2021/05/29 09:09:03;;;;;;;0.60;0.50;;;30.00;39.00;;;;;;5052564;28;20040;-67
2021/05/29 09:11:49;;;;;;;0.60;0.60;;;30.30;38.80;;;;;;5045876;28;20100;-68
2021/05/29 09:14:23;;;;;;;3.65;0.90;;;30.60;38.80;;;;;;5047128;28;21524;-71
2021/05/29 09:17:11;;;;;;;1.17;0.50;;;31.00;38.20;;;;;;5034650;28;20025;-71
2021/05/29 09:19:56;;;;;;;1.40;0.60;;;30.80;38.80;;;;;;5049986;28;20083;-71
2021/05/29 09:22:38;;;;;;;0.70;0.63;;;29.20;39.80;;;;;;5037461;28;20029;-71
2021/05/29 09:25:11;;;;;;;0.70;0.55;;;28.70;39.10;;;;;;5051554;28;20051;-70
2021/05/29 09:27:49;;;;;;;1.42;0.60;;;27.70;40.70;;;;;;5053489;28;20036;-70
2021/05/29 09:30:15;;;;;;;1.48;0.70;;;26.80;41.70;;;;;;5052780;28;20035;-70
2021/05/29 09:32:41;;;;;;;2.05;0.85;;;25.90;41.80;;;;;;5026925;28;20021;-70
2021/05/29 09:35:09;;;;;;;1.90;0.90;;;25.00;42.60;;;;;;5040751;28;20164;-72
2021/05/29 09:37:35;;;;;;;1.85;0.93;;;24.30;43.80;;;;;;5015893;28;20477;-72
2021/05/29 09:40:07;;;;;;;0.70;0.70;;;25.50;42.70;;;;;;5049555;28;20079;-72
2021/05/29 09:42:36;;;;;;;1.85;0.80;;;27.10;41.40;;;;;;5016174;28;20060;-73
2021/05/29 09:45:26;;;;;;;0.88;0.70;;;28.00;40.00;;;;;;5035304;28;20089;-70
2021/05/29 09:48:20;;;;;;;1.80;0.65;;;28.50;39.70;;;;;;5028279;28;20442;-71
2021/05/29 09:51:02;;;;;;;2.38;0.60;;;29.00;39.90;;;;;;5033340;28;20123;-71
2021/05/29 09:53:40;;;;;;;3.15;0.85;;;29.50;40.20;;;;;;5048829;28;20025;-71
2021/05/29 09:56:07;;;;;;;1.02;0.55;;;29.80;39.70;;;;;;5051857;28;20037;-71
2021/05/29 09:58:53;;;;;;;1.05;0.60;;;30.00;40.20;;;;;;5052963;28;20162;-71
2021/05/29 10:01:41;;;;;;;0.98;0.95;;;30.10;39.70;;;;;;5052984;28;20131;-71
2021/05/29 10:04:08;;;;;;;1.58;0.70;;;30.00;39.80;;;;;;5052254;28;20029;-71
2021/05/29 10:06:34;;;;;;;2.20;0.80;;;29.00;39.70;;;;;;5051392;28;20112;-71
2021/05/29 10:09:00;;;;;;;0.75;0.70;;;28.80;40.10;;;;;;5050998;28;20107;-71
2021/05/29 10:11:27;;;;;;;2.22;0.70;;;28.80;40.30;;;;;;5039599;28;20025;-71
2021/05/29 10:13:52;;;;;;;3.85;0.80;;;28.60;40.00;;;;;;5035650;28;20017;-71
2021/05/29 10:16:18;;;;;;;2.10;0.60;;;28.10;40.00;;;;;;5040891;28;20036;-74
2021/05/29 10:18:50;;;;;;;1.27;0.73;;;28.00;40.50;;;;;;5052690;28;20377;-73
2021/05/29 10:21:16;;;;;;;;;;;27.70;39.80;;;;;;5053233;28;20483;-72
2021/05/29 10:23:46;;;;;;;2.83;0.52;;;27.60;43.00;;;;;;5051207;28;19911;-72
2021/05/29 10:26:14;;;;;;;0.77;0.70;;;27.50;41.40;;;;;;5051492;28;20032;-72
2021/05/29 10:28:41;;;;;;;1.35;0.50;;;27.10;40.70;;;;;;5033287;28;20024;-72
2021/05/29 10:31:07;;;;;;;0.68;0.50;;;26.60;40.30;;;;;;5050929;28;20480;-72
2021/05/29 10:33:43;;;;;;;1.15;0.60;;;26.30;40.00;;;;;;5052423;28;20025;-73
2021/05/29 10:36:29;;;;;;;0.50;0.50;;;25.90;39.90;;;;;;5013591;28;20063;-72
2021/05/29 10:38:54;;;;;;;1.17;0.55;;;25.60;40.70;;;;;;5014805;28;20107;-72
2021/05/29 10:41:50;;;;;;;0.70;0.50;;;25.40;40.90;;;;;;5028361;28;20032;-72
2021/05/29 10:44:38;;;;;;;0.50;0.50;;;25.30;40.70;;;;;;5040712;28;20029;-74
2021/05/29 10:47:07;;;;;;;0.57;0.47;;;25.20;40.90;;;;;;5048989;28;20025;-72
2021/05/29 10:49:52;;;;;;;0.70;0.47;;;25.20;41.70;;;;;;5047091;28;20033;-72
2021/05/29 10:52:30;;;;;;;0.52;0.52;;;25.20;41.30;;;;;;5051705;28;20389;-68
2021/05/29 10:55:14;;;;;;;31.83;21.45;;;25.30;41.20;;;;;;5031265;28;20366;-69
2021/05/29 10:57:56;;;;;;;1.70;1.40;;;25.10;41.00;;;;;;5050107;28;20105;-69
2021/05/29 11:00:37;;;;;;;0.75;0.50;;;24.70;40.50;;;;;;5052091;28;20017;-66
2021/05/29 11:03:21;;;;;;;0.93;0.47;;;24.20;40.40;;;;;;5051299;28;20031;-71
2021/05/29 11:05:49;;;;;;;1.15;0.38;;;23.80;40.90;;;;;;5034436;28;20049;-72
2021/05/29 11:08:47;;;;;;;0.50;0.50;;;23.60;41.60;;;;;;5049674;28;20035;-67
2021/05/29 11:11:31;;;;;;;0.38;0.38;;;23.30;42.00;;;;;;5042113;28;20311;-68
2021/05/29 11:14:27;;;;;;;0.40;0.40;;;22.90;41.70;;;;;;5048259;28;20643;-67
2021/05/29 11:16:53;;;;;;;0.50;0.50;;;22.50;41.90;;;;;;5041344;28;20035;-69
2021/05/29 11:19:27;;;;;;;0.40;0.40;;;22.40;43.50;;;;;;5049655;28;20059;-68
2021/05/29 11:22:03;;;;;;;1.80;0.40;;;22.40;43.40;;;;;;5030694;28;20116;-67
2021/05/29 11:24:31;;;;;;;0.50;0.50;;;22.30;43.50;;;;;;5040741;28;20040;-67
2021/05/29 11:26:56;;;;;;;1.17;0.40;;;22.10;43.40;;;;;;5047818;28;20111;-68
2021/05/29 11:29:22;;;;;;;0.60;0.30;;;22.00;43.10;;;;;;5030252;28;20540;-68
2021/05/29 11:31:49;;;;;;;0.40;0.30;;;21.90;43.40;;;;;;5013572;28;20017;-68
2021/05/29 11:34:15;;;;;;;10.13;1.17;;;21.80;44.20;;;;;;5042906;28;20025;-68
2021/05/29 11:36:42;;;;;;;0.60;0.60;;;21.60;43.70;;;;;;5051022;28;20499;-71
2021/05/29 11:39:09;;;;;;;1.08;0.40;;;21.50;43.90;;;;;;5051405;28;20082;-68
2021/05/29 11:41:35;;;;;;;2.05;0.43;;;21.40;44.60;;;;;;5042245;28;20025;-67
2021/05/29 11:44:02;;;;;;;0.47;0.40;;;21.30;43.80;;;;;;5030677;28;20045;-68
2021/05/29 11:46:30;;;;;;;4.85;0.50;;;21.20;43.70;;;;;;5037105;28;20499;-67
2021/05/29 11:49:01;;;;;;;0.80;0.50;;;21.20;44.40;;;;;;5032929;28;20021;-68
2021/05/29 11:51:32;;;;;;;1.33;0.50;;;21.40;44.60;;;;;;5033405;28;20483;-68
2021/05/29 11:54:09;;;;;;;0.50;0.50;;;21.50;44.70;;;;;;5050407;28;20028;-68
2021/05/29 11:56:36;;;;;;;1.40;0.45;;;21.60;44.50;;;;;;5051095;28;20021;-71
2021/05/29 11:59:06;;;;;;;0.60;0.40;;;21.80;44.70;;;;;;5051262;28;20021;-67
2021/05/29 12:01:33;;;;;;;0.65;0.47;;;22.00;44.70;;;;;;5035210;28;20021;-68
2021/05/29 12:04:04;;;;;;;0.55;0.40;;;22.10;45.10;;;;;;5020323;28;20115;-69
2021/05/29 12:06:39;;;;;;;1.90;0.40;;;22.30;44.70;;;;;;5048039;28;20368;-68
2021/05/29 12:09:11;;;;;;;0.40;0.40;;;22.30;44.70;;;;;;5043598;28;20048;-68
2021/05/29 12:11:39;;;;;;;1.10;0.47;;;22.40;44.20;;;;;;5049552;28;20027;-69
2021/05/29 12:14:05;;;;;;;0.50;0.50;;;22.40;44.40;;;;;;5031108;28;20036;-68
2021/05/29 12:16:42;;;;;;;8.93;5.97;;;22.50;44.20;;;;;;5032389;28;20028;-68
2021/05/29 12:19:25;;;;;;;1.40;1.00;;;22.60;44.40;;;;;;5050460;28;20032;-67
2021/05/29 12:21:53;;;;;;;;;;;22.80;44.40;;;;;;5049856;28;20025;-67
2021/05/29 12:24:19;;;;;;;3.28;0.47;;;22.90;45.00;;;;;;5049916;28;19908;-69
2021/05/29 12:26:48;;;;;;;1.77;0.52;;;23.10;44.90;;;;;;5046743;28;20056;-67
2021/05/29 12:29:18;;;;;;;3.00;0.50;;;23.30;44.60;;;;;;5035270;28;20028;-67
2021/05/29 12:31:46;;;;;;;1.15;0.65;;;23.40;45.00;;;;;;5038580;28;20025;-67
2021/05/29 12:34:12;;;;;;;0.40;0.40;;;23.30;44.10;;;;;;5047665;28;20783;-70
2021/05/29 12:37:02;;;;;;;12.70;9.18;;;23.10;43.50;;;;;;5050644;28;20017;-71
2021/05/29 12:39:44;;;;;;;2.55;0.63;;;22.80;43.60;;;;;;5049795;28;20029;-71
2021/05/29 12:42:21;;;;;;;0.80;0.47;;;22.60;43.80;;;;;;5027854;28;20128;-70
2021/05/29 12:44:48;;;;;;;1.83;0.50;;;22.60;43.60;;;;;;5032325;28;20497;-71
2021/05/29 12:47:31;;;;;;;1.15;0.40;;;22.50;43.50;;;;;;5043782;28;20587;-71
2021/05/29 12:49:58;;;;;;;1.40;0.40;;;22.50;42.50;;;;;;5048701;28;20827;-71
2021/05/29 12:52:27;;;;;;;0.30;0.30;;;22.40;42.50;;;;;;5039807;28;20639;-70
2021/05/29 12:54:54;;;;;;;0.40;0.40;;;22.20;42.40;;;;;;5048549;28;20048;-70
2021/05/29 12:57:19;;;;;;;0.75;0.40;;;22.00;42.00;;;;;;5032118;28;20108;-71
2021/05/29 12:59:45;;;;;;;0.40;0.40;;;21.70;41.80;;;;;;5050438;28;20159;-70
2021/05/29 13:02:35;;;;;;;0.65;0.57;;;21.60;41.90;;;;;;5049629;28;20029;-70
2021/05/29 13:07:48;;;;;;;1.20;0.73;;;21.50;43.80;;;;;;5045778;28;20369;-71
2021/05/29 13:10:25;;;;;;;0.43;0.43;;;21.50;43.30;;;;;;5049218;28;20461;-71